Martinton, IL (60951)

3:57 PM CDT on August 29, 2015 (GMT -0500)
North Watseka | | Change Station
CLOSE
Current Station
Personal Weather Station
Location: Watseka, IL
Elevation: 636 ft
Nearby Weather Stations

Elev 636 ft 40.82 °N, 87.75 °W | Updated 1 minute ago

Overcast
Overcast
74.2 °F
Feels Like 72 °F
N
0.0
Wind Variable Wind from SSE

Today
High -- | Low -- °F
--% Chance of Precip.
Yesterday
High -- | Low -- °F
Precip. -- in
6:14 AM 7:28 PM
Full, 100% visible
Pressure 30.01 in
Visibility 10.0 miles
Clouds Overcast 7000 ft
Heat Index 72 °F
Dew Point 72 °F
Humidity 91%
Rainfall 0.05 in
Snow Depth Not available.
UV 2 out of 12
Pollen 9.90 out of 12
Air Quality Not available.
Flu Activity Not available.
METAR KIKK 292035Z AUTO 18003KT 10SM OVC070 24/21 A3001 RMK AO2 T02400206
Pressure 30.01 in
Visibility 10.0 miles
Clouds Overcast 7000 ft
Heat Index 72 °F
Dew Point 72 °F
Humidity 91%
Rainfall 0.05 in
Snow Depth Not available.
UV 2 out of 12
Pollen 9.90 out of 12
Air Quality Not available.
Flu Activity Not available.
METAR KIKK 292035Z AUTO 18003KT 10SM OVC070 24/21 A3001 RMK AO2 T02400206

10-Day Weather Forecast

×

Almanac

Astronomy

Aug. 29, 2015 Rise Set
Actual Time
Civil Twilight
Nautical Twilight
Astronomical Twilight
Moon
Length of Visible Light
Length of Day
Tomorrow will be .
, % of the Moon is Illuminated

Today's Extremes

State Highs State Lows

Community

WunderPhotos

Upload Photos

1,850,793 photos uploaded!

WunderBlogs® & News

Nearby

Air Quality

  Air Quality AQ Index Pollutant
Not available.

Snow Depth

Station Depth Elevation

Earthquake Activity

City Distance Mag. Time & Date
Minimum magnitude displayed is 2.5.

Coastal Water Temperatures

Place Temperature

Stations

Nearby Weather Stations

Station Location Temp. Windchill Dew Point Humidity Wind Precip. Elev Updated Type